Time;durP1;ratioP1;P1;durP2;ratioP2;P2;SDS_P1;SDS_P2;PMS_P1;PMS_P2;Temp;Humidity;BMP_temperature;BMP_pressure;BME280_temperature;BME280_humidity;BME280_pressure;Samples;Min_cycle;Max_cycle;Signal;HPM_P1;HPM_P2
2022/07/16 00:02:38;;;;;;;16.45;9.00;;;;;;;;;;5013217;28;20033;-62
2022/07/16 00:05:04;;;;;;;14.98;9.18;;;;;;;;;;5012763;28;20026;-62
2022/07/16 00:07:30;;;;;;;16.42;9.02;;;;;;;;;;5012632;28;20102;-62
2022/07/16 00:09:58;;;;;;;14.45;8.50;;;;;;;;;;5011630;28;20435;-61
2022/07/16 00:12:24;;;;;;;15.20;9.05;;;;;;;;;;5013371;28;20026;-61
2022/07/16 00:14:50;;;;;;;16.60;9.20;;;;;;;;;;5011697;28;20397;-61
2022/07/16 00:17:16;;;;;;;15.82;9.07;;;;;;;;;;5012603;28;20109;-63
2022/07/16 00:19:42;;;;;;;16.85;9.13;;;;;;;;;;5012908;28;20130;-62
2022/07/16 00:22:08;;;;;;;16.33;9.15;;;;;;;;;;5011517;28;20045;-61
2022/07/16 00:24:34;;;;;;;18.67;9.10;;;;;;;;;;5012691;28;20425;-61
2022/07/16 00:29:33;;;;;;;16.92;8.50;;;;;;;;;;5046749;23;20050;-59
2022/07/16 00:31:59;;;;;;;15.73;9.00;;;;;;;;;;5031044;28;20409;-61
2022/07/16 00:34:25;;;;;;;15.07;8.80;;;;;;;;;;5032293;28;20072;-60
2022/07/16 00:36:51;;;;;;;17.92;9.30;;;;;;;;;;5030819;28;20025;-62
2022/07/16 00:39:17;;;;;;;14.68;8.57;;;;;;;;;;5031832;28;20108;-61
2022/07/16 00:41:44;;;;;;;14.70;8.68;;;;;;;;;;5030852;28;20017;-61
2022/07/16 00:44:12;;;;;;;15.63;9.15;;;;;;;;;;5031973;28;20478;-62
2022/07/16 00:46:38;;;;;;;16.87;8.90;;;;;;;;;;5032016;28;20028;-62
2022/07/16 00:49:05;;;;;;;16.15;8.77;;;;;;;;;;5030522;28;20052;-61
2022/07/16 00:51:31;;;;;;;17.00;9.68;;;;;;;;;;5032068;28;20041;-60
2022/07/16 00:53:58;;;;;;;15.07;8.82;;;;;;;;;;5031921;28;20022;-61
2022/07/16 00:56:24;;;;;;;17.90;9.57;;;;;;;;;;5031655;28;20470;-61
2022/07/16 00:58:51;;;;;;;18.15;9.70;;;;;;;;;;5031664;28;20116;-62
2022/07/16 01:01:17;;;;;;;16.63;9.13;;;;;;;;;;5031670;28;20030;-62
2022/07/16 01:03:44;;;;;;;16.17;9.07;;;;;;;;;;5032043;28;20112;-61
2022/07/16 01:06:11;;;;;;;18.58;9.20;;;;;;;;;;5031831;28;20505;-59
2022/07/16 01:08:38;;;;;;;15.77;8.93;;;;;;;;;;5032836;28;20031;-61
2022/07/16 01:11:06;;;;;;;16.13;9.38;;;;;;;;;;5034565;28;20116;-61
2022/07/16 01:13:32;;;;;;;15.10;8.80;;;;;;;;;;5036048;28;20029;-62
2022/07/16 01:15:58;;;;;;;16.77;8.93;;;;;;;;;;5034435;28;20029;-59
2022/07/16 01:18:24;;;;;;;20.73;10.40;;;;;;;;;;5035578;28;20025;-62
2022/07/16 01:20:50;;;;;;;16.55;8.90;;;;;;;;;;5035843;28;20029;-62
2022/07/16 01:23:20;;;;;;;16.58;8.65;;;;;;;;;;5035876;28;20045;-62
2022/07/16 01:25:46;;;;;;;15.35;8.65;;;;;;;;;;5035879;28;20050;-60
2022/07/16 01:28:12;;;;;;;15.88;8.52;;;;;;;;;;5035484;28;20409;-61
2022/07/16 01:30:39;;;;;;;17.13;8.60;;;;;;;;;;5035484;28;20036;-61
2022/07/16 01:33:23;;;;;;;17.98;8.70;;;;;;;;;;5035435;28;20027;-62
2022/07/16 01:35:50;;;;;;;16.25;9.27;;;;;;;;;;5035295;28;20393;-62
2022/07/16 01:38:16;;;;;;;15.13;8.90;;;;;;;;;;5034918;28;20524;-62
2022/07/16 01:40:42;;;;;;;16.00;9.05;;;;;;;;;;5035197;28;20025;-60
2022/07/16 01:43:26;;;;;;;17.75;9.18;;;;;;;;;;5034128;28;20025;-61
2022/07/16 01:45:53;;;;;;;17.15;9.30;;;;;;;;;;5033980;28;20021;-62
2022/07/16 01:48:19;;;;;;;17.13;8.75;;;;;;;;;;5034870;28;20032;-60
2022/07/16 01:50:45;;;;;;;18.42;8.82;;;;;;;;;;5034947;28;20035;-62
2022/07/16 01:53:12;;;;;;;19.58;9.77;;;;;;;;;;5033667;28;20117;-62
2022/07/16 01:55:38;;;;;;;15.77;8.50;;;;;;;;;;5035172;28;20025;-60
2022/07/16 01:58:04;;;;;;;17.38;8.70;;;;;;;;;;5034592;28;20116;-63
2022/07/16 02:00:31;;;;;;;16.42;8.20;;;;;;;;;;5034937;28;20029;-59
2022/07/16 02:02:57;;;;;;;17.85;8.48;;;;;;;;;;5034757;28;20560;-60
2022/07/16 02:05:23;;;;;;;17.40;9.23;;;;;;;;;;5034693;28;20026;-62
2022/07/16 02:07:49;;;;;;;15.10;8.60;;;;;;;;;;5034534;28;20022;-61
2022/07/16 02:10:16;;;;;;;16.65;8.85;;;;;;;;;;5034969;28;20034;-62
2022/07/16 02:12:42;;;;;;;17.02;9.07;;;;;;;;;;5034827;28;20026;-62
2022/07/16 02:15:08;;;;;;;16.92;8.82;;;;;;;;;;5034609;28;20021;-63
2022/07/16 02:17:34;;;;;;;17.05;9.00;;;;;;;;;;5034319;28;20389;-61
2022/07/16 02:20:01;;;;;;;15.55;9.30;;;;;;;;;;5033369;28;20025;-62
2022/07/16 02:22:27;;;;;;;16.40;8.85;;;;;;;;;;5033432;28;20022;-61
2022/07/16 02:24:53;;;;;;;15.98;9.02;;;;;;;;;;5034064;28;20036;-62
2022/07/16 02:27:19;;;;;;;20.90;10.23;;;;;;;;;;5033814;28;20501;-62
2022/07/16 02:29:45;;;;;;;16.73;9.20;;;;;;;;;;5034413;28;20037;-62
2022/07/16 02:32:11;;;;;;;16.83;9.43;;;;;;;;;;5034071;28;20087;-60
2022/07/16 02:34:37;;;;;;;18.63;9.52;;;;;;;;;;5034115;28;20497;-61
2022/07/16 02:37:03;;;;;;;18.13;9.50;;;;;;;;;;5034470;28;20021;-61
2022/07/16 02:39:29;;;;;;;15.98;8.90;;;;;;;;;;5033873;28;20036;-62
2022/07/16 02:41:55;;;;;;;16.17;9.10;;;;;;;;;;5033188;28;20022;-62
2022/07/16 02:44:21;;;;;;;17.17;9.20;;;;;;;;;;5033949;28;20024;-60
2022/07/16 02:46:47;;;;;;;15.93;9.00;;;;;;;;;;5033957;28;20025;-61
2022/07/16 02:49:13;;;;;;;14.45;8.70;;;;;;;;;;5032262;28;20029;-62
2022/07/16 02:51:39;;;;;;;17.17;9.35;;;;;;;;;;5033974;28;20033;-60
2022/07/16 02:54:05;;;;;;;15.05;8.80;;;;;;;;;;5033708;28;20398;-61
2022/07/16 02:56:31;;;;;;;18.52;9.05;;;;;;;;;;5033959;28;20133;-60
2022/07/16 02:58:57;;;;;;;16.88;8.80;;;;;;;;;;5032338;28;20022;-62
2022/07/16 03:01:23;;;;;;;19.00;9.32;;;;;;;;;;5032622;28;20030;-61
2022/07/16 03:03:50;;;;;;;17.17;8.90;;;;;;;;;;5032537;28;20017;-63
2022/07/16 03:06:16;;;;;;;22.17;9.77;;;;;;;;;;5033614;28;20040;-60
2022/07/16 03:08:42;;;;;;;17.88;8.98;;;;;;;;;;5033423;28;20024;-61
2022/07/16 03:11:08;;;;;;;15.43;8.50;;;;;;;;;;5033541;28;20025;-54
2022/07/16 03:13:34;;;;;;;17.55;9.32;;;;;;;;;;5032256;28;20032;-62
2022/07/16 03:16:00;;;;;;;16.30;8.32;;;;;;;;;;5033495;28;20022;-62
2022/07/16 03:18:26;;;;;;;16.92;8.50;;;;;;;;;;5031740;28;20112;-61
2022/07/16 03:20:52;;;;;;;16.27;8.88;;;;;;;;;;5033450;28;20028;-61
2022/07/16 03:23:18;;;;;;;17.63;8.13;;;;;;;;;;5032109;28;20021;-57
2022/07/16 03:25:44;;;;;;;17.42;8.80;;;;;;;;;;5032027;28;20017;-60
2022/07/16 03:28:10;;;;;;;16.40;8.75;;;;;;;;;;5032814;28;20034;-60
2022/07/16 03:30:36;;;;;;;14.85;8.48;;;;;;;;;;5033193;28;20063;-61
2022/07/16 03:33:03;;;;;;;15.75;8.52;;;;;;;;;;5031563;28;20029;-61
2022/07/16 03:35:29;;;;;;;17.20;8.52;;;;;;;;;;5033282;28;20037;-61
2022/07/16 03:40:40;;;;;;;17.00;9.13;;;;;;;;;;5033332;28;20036;-62
2022/07/16 03:43:06;;;;;;;15.27;8.23;;;;;;;;;;5033360;28;20402;-62
2022/07/16 03:45:32;;;;;;;19.23;9.40;;;;;;;;;;5033478;28;20028;-62
2022/07/16 03:47:58;;;;;;;19.08;8.60;;;;;;;;;;5032937;28;20029;-62
2022/07/16 03:50:25;;;;;;;16.38;8.43;;;;;;;;;;5031646;28;20049;-62
2022/07/16 03:52:51;;;;;;;15.70;7.82;;;;;;;;;;5032776;28;20029;-62
2022/07/16 03:55:17;;;;;;;16.20;8.48;;;;;;;;;;5032785;28;20017;-62
2022/07/16 03:57:43;;;;;;;15.88;8.70;;;;;;;;;;5032153;28;20112;-62
2022/07/16 04:00:10;;;;;;;15.48;9.20;;;;;;;;;;5032793;28;20108;-62
2022/07/16 04:02:36;;;;;;;16.48;8.82;;;;;;;;;;5031387;28;20025;-61
2022/07/16 04:05:02;;;;;;;17.75;9.50;;;;;;;;;;5032435;28;20025;-62
2022/07/16 04:07:28;;;;;;;17.88;8.90;;;;;;;;;;5032317;28;20079;-61
2022/07/16 04:09:54;;;;;;;16.95;8.98;;;;;;;;;;5032545;28;20022;-62
2022/07/16 04:12:23;;;;;;;15.82;9.18;;;;;;;;;;5032437;28;20032;-62
2022/07/16 04:14:50;;;;;;;17.50;9.27;;;;;;;;;;5032346;28;20029;-62
2022/07/16 04:17:16;;;;;;;16.92;9.23;;;;;;;;;;5030826;28;20083;-62
2022/07/16 04:19:42;;;;;;;17.38;9.32;;;;;;;;;;5032468;28;20029;-62
2022/07/16 04:22:08;;;;;;;15.75;9.27;;;;;;;;;;5032336;28;20022;-60
2022/07/16 04:24:34;;;;;;;19.38;9.43;;;;;;;;;;5032186;28;20021;-63
2022/07/16 04:27:00;;;;;;;16.60;9.30;;;;;;;;;;5032203;28;20071;-61
2022/07/16 04:29:26;;;;;;;15.05;8.63;;;;;;;;;;5030420;28;20033;-63
2022/07/16 04:31:52;;;;;;;15.95;8.60;;;;;;;;;;5032227;28;20045;-62
2022/07/16 04:34:18;;;;;;;16.38;8.82;;;;;;;;;;5032242;28;20022;-62
2022/07/16 04:36:44;;;;;;;18.40;9.40;;;;;;;;;;5032118;28;20105;-62
2022/07/16 04:39:11;;;;;;;14.98;8.75;;;;;;;;;;5032168;28;20035;-57
2022/07/16 04:41:37;;;;;;;15.77;8.85;;;;;;;;;;5031884;28;20112;-60
2022/07/16 04:44:03;;;;;;;16.30;8.95;;;;;;;;;;5031867;28;20049;-62
2022/07/16 04:46:29;;;;;;;18.15;10.18;;;;;;;;;;5030741;28;20033;-62
2022/07/16 04:48:55;;;;;;;17.42;8.95;;;;;;;;;;5031737;28;20022;-61
2022/07/16 04:51:21;;;;;;;17.00;9.52;;;;;;;;;;5030735;28;20505;-62
2022/07/16 04:53:47;;;;;;;16.98;8.82;;;;;;;;;;5030850;28;20052;-62
2022/07/16 04:56:13;;;;;;;16.85;9.23;;;;;;;;;;5031900;28;20055;-60
2022/07/16 04:58:39;;;;;;;14.93;8.90;;;;;;;;;;5031643;28;20363;-62
2022/07/16 05:01:05;;;;;;;16.63;9.05;;;;;;;;;;5032057;28;20064;-61
2022/07/16 05:03:32;;;;;;;14.98;9.02;;;;;;;;;;5032060;28;20401;-60
2022/07/16 05:05:58;;;;;;;16.52;9.38;;;;;;;;;;5031911;28;20021;-63
2022/07/16 05:08:24;;;;;;;15.57;9.30;;;;;;;;;;5031523;28;20021;-61
2022/07/16 05:10:50;;;;;;;17.55;9.52;;;;;;;;;;5030604;28;20389;-60
2022/07/16 05:13:16;;;;;;;16.63;8.80;;;;;;;;;;5032006;28;20025;-62
2022/07/16 05:15:42;;;;;;;17.50;8.90;;;;;;;;;;5031910;28;20033;-61
2022/07/16 05:18:09;;;;;;;16.10;8.70;;;;;;;;;;5031457;28;20032;-61
2022/07/16 05:20:35;;;;;;;16.88;9.55;;;;;;;;;;5031615;28;20021;-61
2022/07/16 05:23:01;;;;;;;17.67;8.90;;;;;;;;;;5031508;28;20108;-62
2022/07/16 05:25:27;;;;;;;15.88;8.32;;;;;;;;;;5031648;28;20026;-58
2022/07/16 05:27:53;;;;;;;16.63;13.60;;;;;;;;;;5031343;28;20474;-62
2022/07/16 05:30:19;;;;;;;18.50;16.55;;;;;;;;;;5031556;28;20052;-62
2022/07/16 05:32:45;;;;;;;21.45;19.25;;;;;;;;;;5031958;28;20052;-60
2022/07/16 05:35:12;;;;;;;22.67;20.40;;;;;;;;;;5030337;28;20025;-61
2022/07/16 05:37:38;;;;;;;21.63;19.52;;;;;;;;;;5031268;28;20029;-60
2022/07/16 05:40:05;;;;;;;24.92;22.60;;;;;;;;;;5031383;28;20056;-62
2022/07/16 05:42:31;;;;;;;25.58;23.05;;;;;;;;;;5031346;28;20041;-62
2022/07/16 05:44:57;;;;;;;23.98;21.58;;;;;;;;;;5031643;28;20041;-62
2022/07/16 05:47:23;;;;;;;22.77;20.48;;;;;;;;;;5031027;28;20052;-62
2022/07/16 05:49:49;;;;;;;23.10;20.17;;;;;;;;;;5031545;28;20022;-62
2022/07/16 05:52:15;;;;;;;21.50;19.40;;;;;;;;;;5031123;28;20033;-61
2022/07/16 05:54:41;;;;;;;21.48;19.08;;;;;;;;;;5029978;28;20038;-59
2022/07/16 05:57:08;;;;;;;21.17;19.00;;;;;;;;;;5034510;28;20030;-62
2022/07/16 05:59:34;;;;;;;20.70;17.83;;;;;;;;;;5034645;28;20022;-61
2022/07/16 06:02:00;;;;;;;27.73;17.40;;;;;;;;;;5034972;28;20032;-62
2022/07/16 06:04:26;;;;;;;19.30;16.45;;;;;;;;;;5034843;28;20018;-62
2022/07/16 06:06:52;;;;;;;20.77;17.05;;;;;;;;;;5034353;28;20413;-61
2022/07/16 06:09:18;;;;;;;18.75;16.75;;;;;;;;;;5034216;28;20021;-59
2022/07/16 06:11:44;;;;;;;20.58;16.70;;;;;;;;;;5034732;28;20021;-62
2022/07/16 06:14:10;;;;;;;18.65;16.63;;;;;;;;;;5034914;28;20029;-60
2022/07/16 06:16:36;;;;;;;21.00;16.30;;;;;;;;;;5033522;28;20029;-61
2022/07/16 06:19:02;;;;;;;19.80;16.52;;;;;;;;;;5034637;28;20033;-61
2022/07/16 06:21:28;;;;;;;24.23;15.65;;;;;;;;;;5034654;28;20029;-61
2022/07/16 06:23:54;;;;;;;21.77;16.65;;;;;;;;;;5035083;28;20021;-62
2022/07/16 06:26:20;;;;;;;17.63;15.45;;;;;;;;;;5034972;28;20022;-62
2022/07/16 06:28:46;;;;;;;21.60;15.77;;;;;;;;;;5034883;28;20367;-61
2022/07/16 06:31:12;;;;;;;18.73;14.63;;;;;;;;;;5034045;28;20021;-60
2022/07/16 06:33:38;;;;;;;17.23;13.70;;;;;;;;;;5033048;28;20112;-61
2022/07/16 06:36:05;;;;;;;19.42;13.65;;;;;;;;;;5034084;28;20029;-57
2022/07/16 06:38:32;;;;;;;17.77;13.52;;;;;;;;;;5032540;28;20569;-61
2022/07/16 06:40:58;;;;;;;17.48;13.05;;;;;;;;;;5034073;28;20060;-61
2022/07/16 06:43:24;;;;;;;17.10;13.32;;;;;;;;;;5034251;28;20275;-62
2022/07/16 06:45:50;;;;;;;17.70;12.25;;;;;;;;;;5032975;28;20025;-59
2022/07/16 06:48:16;;;;;;;18.65;11.88;;;;;;;;;;5033876;28;20036;-56
2022/07/16 06:50:42;;;;;;;18.58;11.30;;;;;;;;;;5032772;28;20504;-62
2022/07/16 06:53:08;;;;;;;17.02;10.13;;;;;;;;;;5033655;28;20064;-61
2022/07/16 06:55:34;;;;;;;17.40;9.60;;;;;;;;;;5033902;28;20037;-59
2022/07/16 06:58:00;;;;;;;15.93;8.70;;;;;;;;;;5033753;28;20374;-61
2022/07/16 07:00:26;;;;;;;18.40;9.00;;;;;;;;;;5033913;28;20385;-58
2022/07/16 07:02:52;;;;;;;14.20;7.82;;;;;;;;;;5033975;28;20049;-60
2022/07/16 07:05:18;;;;;;;16.10;8.73;;;;;;;;;;5033854;28;20028;-60
2022/07/16 07:07:45;;;;;;;15.73;8.10;;;;;;;;;;5032831;28;20104;-62
2022/07/16 07:10:11;;;;;;;14.15;7.90;;;;;;;;;;5032492;28;20383;-61
2022/07/16 07:12:37;;;;;;;14.80;7.97;;;;;;;;;;5032485;28;20128;-60
2022/07/16 07:15:04;;;;;;;15.25;7.75;;;;;;;;;;5033641;28;20021;-60
2022/07/16 07:17:31;;;;;;;14.90;8.05;;;;;;;;;;5032732;28;20032;-60
2022/07/16 07:19:57;;;;;;;15.02;8.00;;;;;;;;;;5033596;28;20025;-60
2022/07/16 07:22:23;;;;;;;14.45;8.02;;;;;;;;;;5033282;28;20029;-61
2022/07/16 07:24:50;;;;;;;15.38;8.13;;;;;;;;;;5033348;28;20385;-60
2022/07/16 07:27:18;;;;;;;15.30;7.97;;;;;;;;;;5031612;28;20021;-62
2022/07/16 07:29:44;;;;;;;15.38;8.15;;;;;;;;;;5033495;28;20017;-61
2022/07/16 07:32:10;;;;;;;18.23;8.80;;;;;;;;;;5033264;28;20025;-60
2022/07/16 07:34:36;;;;;;;17.75;9.02;;;;;;;;;;5031781;28;20022;-61
2022/07/16 07:37:02;;;;;;;14.65;8.05;;;;;;;;;;5032956;28;20025;-58
2022/07/16 07:39:28;;;;;;;14.60;7.80;;;;;;;;;;5032598;28;20022;-61
2022/07/16 07:41:54;;;;;;;15.93;8.20;;;;;;;;;;5031479;28;20029;-61
2022/07/16 07:44:20;;;;;;;15.27;8.30;;;;;;;;;;5031307;28;20362;-64
2022/07/16 07:46:46;;;;;;;13.80;7.55;;;;;;;;;;5032866;28;20092;-60
2022/07/16 07:49:12;;;;;;;18.60;8.23;;;;;;;;;;5032595;28;20482;-62
2022/07/16 07:51:38;;;;;;;17.17;8.00;;;;;;;;;;5032641;28;20096;-58
2022/07/16 07:54:04;;;;;;;15.20;8.05;;;;;;;;;;5031527;28;20057;-60
2022/07/16 07:56:30;;;;;;;14.85;8.18;;;;;;;;;;5032644;28;20507;-56
2022/07/16 07:58:56;;;;;;;14.80;8.00;;;;;;;;;;5030490;28;20025;-60
2022/07/16 08:01:22;;;;;;;13.82;7.90;;;;;;;;;;5030691;28;20025;-60
2022/07/16 08:03:48;;;;;;;15.90;8.18;;;;;;;;;;5032773;28;20017;-57
2022/07/16 08:06:14;;;;;;;16.52;8.20;;;;;;;;;;5032925;28;20017;-59
2022/07/16 08:08:40;;;;;;;14.45;8.10;;;;;;;;;;5032390;28;20116;-58
2022/07/16 08:11:06;;;;;;;17.83;8.50;;;;;;;;;;5031554;28;20021;-62
2022/07/16 08:13:33;;;;;;;14.00;7.70;;;;;;;;;;5033144;28;20030;-60
2022/07/16 08:15:59;;;;;;;15.25;8.00;;;;;;;;;;5031622;28;20025;-61
2022/07/16 08:18:25;;;;;;;14.77;7.90;;;;;;;;;;5031420;28;20532;-61
2022/07/16 08:20:51;;;;;;;15.63;8.10;;;;;;;;;;5031928;28;20034;-61
2022/07/16 08:25:44;;;;;;;13.45;7.65;;;;;;;;;;5031944;28;20528;-64
2022/07/16 08:26:03;;;;;;;15.20;7.80;;;;;;;;;;5032068;28;20120;-62
2022/07/16 08:28:29;;;;;;;17.02;7.70;;;;;;;;;;5031278;28;20025;-63
2022/07/16 08:30:55;;;;;;;15.60;7.95;;;;;;;;;;5030884;28;20064;-63
2022/07/16 08:33:21;;;;;;;16.05;7.70;;;;;;;;;;5032303;28;20116;-62
2022/07/16 08:35:47;;;;;;;15.88;8.68;;;;;;;;;;5032058;28;20403;-64
2022/07/16 08:38:13;;;;;;;17.77;8.50;;;;;;;;;;5031571;28;20507;-60
2022/07/16 08:40:41;;;;;;;14.05;8.02;;;;;;;;;;5031787;28;20060;-60
2022/07/16 08:43:08;;;;;;;17.88;9.05;;;;;;;;;;5031678;28;20108;-62
2022/07/16 08:45:38;;;;;;;14.63;8.68;;;;;;;;;;5031673;28;20032;-61
2022/07/16 08:48:04;;;;;;;14.80;8.63;;;;;;;;;;5031311;28;20433;-62
2022/07/16 08:50:30;;;;;;;16.00;8.82;;;;;;;;;;5031747;28;20039;-61
2022/07/16 08:52:57;;;;;;;15.40;8.55;;;;;;;;;;5031749;28;20013;-63
2022/07/16 08:55:24;;;;;;;15.10;8.70;;;;;;;;;;5031614;28;20108;-59
2022/07/16 08:57:51;;;;;;;21.38;9.82;;;;;;;;;;5031277;28;20481;-60
2022/07/16 09:00:17;;;;;;;15.80;9.15;;;;;;;;;;5030459;28;20026;-63
2022/07/16 09:02:45;;;;;;;16.52;8.65;;;;;;;;;;5031641;28;20539;-60
2022/07/16 09:05:11;;;;;;;16.45;8.98;;;;;;;;;;5031455;28;20041;-60
2022/07/16 09:07:37;;;;;;;17.85;9.18;;;;;;;;;;5031134;28;20477;-59
2022/07/16 09:10:04;;;;;;;16.55;9.30;;;;;;;;;;5031306;28;20026;-59
2022/07/16 09:12:34;;;;;;;18.60;9.13;;;;;;;;;;5031695;28;20099;-62
2022/07/16 09:15:00;;;;;;;17.77;9.23;;;;;;;;;;5030273;28;20110;-60
2022/07/16 09:17:26;;;;;;;16.35;8.70;;;;;;;;;;5031082;28;20516;-60
2022/07/16 09:19:52;;;;;;;16.75;8.27;;;;;;;;;;5030857;28;20021;-59
2022/07/16 09:22:18;;;;;;;15.98;8.98;;;;;;;;;;5031049;28;20021;-62
2022/07/16 09:24:48;;;;;;;17.67;8.68;;;;;;;;;;5020260;28;20072;-60
2022/07/16 09:27:14;;;;;;;15.77;8.15;;;;;;;;;;5011379;28;20030;-60
2022/07/16 09:29:46;;;;;;;15.27;8.80;;;;;;;;;;5012843;28;20524;-61
2022/07/16 09:32:13;;;;;;;16.50;9.00;;;;;;;;;;5015633;28;20022;-61
2022/07/16 09:34:39;;;;;;;16.73;8.90;;;;;;;;;;5024788;28;20030;-60
2022/07/16 09:37:07;;;;;;;16.60;9.10;;;;;;;;;;5033662;28;20021;-61
2022/07/16 09:39:34;;;;;;;17.52;8.55;;;;;;;;;;5034859;28;20494;-62
2022/07/16 09:42:00;;;;;;;16.25;8.70;;;;;;;;;;5034948;28;20498;-60
2022/07/16 09:44:28;;;;;;;17.75;8.65;;;;;;;;;;5034818;28;20021;-61
2022/07/16 09:46:57;;;;;;;15.60;8.60;;;;;;;;;;5034777;28;20037;-62
2022/07/16 09:49:23;;;;;;;17.30;8.68;;;;;;;;;;5034437;28;20078;-61
2022/07/16 09:51:49;;;;;;;16.33;8.20;;;;;;;;;;5034613;28;20026;-61
2022/07/16 09:54:48;;;;;;;15.65;8.45;;;;;;;;;;5034869;28;20034;-61
2022/07/16 09:57:18;;;;;;;15.52;8.50;;;;;;;;;;5022458;28;20099;-60
2022/07/16 09:59:45;;;;;;;15.13;8.40;;;;;;;;;;5034391;28;20067;-61
2022/07/16 10:02:11;;;;;;;16.92;8.93;;;;;;;;;;5033146;28;20040;-62
2022/07/16 10:04:37;;;;;;;16.67;8.85;;;;;;;;;;5033174;28;20050;-61
2022/07/16 10:07:03;;;;;;;15.30;8.77;;;;;;;;;;5034274;28;20022;-61
2022/07/16 10:09:29;;;;;;;15.02;9.10;;;;;;;;;;5032504;28;20033;-58
2022/07/16 10:11:56;;;;;;;14.20;8.63;;;;;;;;;;5034190;28;20108;-61
2022/07/16 10:14:23;;;;;;;14.77;9.15;;;;;;;;;;5034337;28;20029;-61
2022/07/16 10:16:49;;;;;;;14.65;8.38;;;;;;;;;;5034411;28;20478;-62
2022/07/16 10:19:15;;;;;;;17.50;9.15;;;;;;;;;;5033982;28;20058;-62
2022/07/16 10:22:01;;;;;;;15.00;8.20;;;;;;;;;;5034069;28;20032;-62
2022/07/16 10:24:42;;;;;;;14.93;8.63;;;;;;;;;;5034251;28;20389;-58
2022/07/16 10:27:26;;;;;;;15.07;8.73;;;;;;;;;;5034186;28;20100;-58
2022/07/16 10:30:25;;;;;;;15.65;9.07;;;;;;;;;;5032933;28;20033;-61
2022/07/16 10:33:05;;;;;;;17.35;9.00;;;;;;;;;;5010898;28;20493;-62
2022/07/16 10:35:37;;;;;;;16.73;8.80;;;;;;;;;;5032622;28;20456;-61
2022/07/16 10:38:06;;;;;;;16.10;8.77;;;;;;;;;;5033380;28;20024;-61
2022/07/16 10:40:33;;;;;;;15.52;8.38;;;;;;;;;;5033347;28;20445;-60
2022/07/16 10:43:17;;;;;;;15.70;9.52;;;;;;;;;;5033327;28;20018;-59
2022/07/16 10:45:56;;;;;;;15.65;9.00;;;;;;;;;;5034057;28;20068;-61
2022/07/16 10:48:24;;;;;;;15.77;8.70;;;;;;;;;;5033520;28;20026;-61
2022/07/16 10:51:08;;;;;;;14.50;8.40;;;;;;;;;;5033676;28;20335;-61
2022/07/16 10:53:52;;;;;;;17.27;8.82;;;;;;;;;;5033602;28;20343;-59
2022/07/16 10:56:31;;;;;;;15.60;8.52;;;;;;;;;;5033587;28;20032;-61
2022/07/16 10:58:58;;;;;;;17.25;8.70;;;;;;;;;;5033464;28;20507;-62
2022/07/16 11:01:24;;;;;;;16.60;8.80;;;;;;;;;;5033365;28;20410;-61
2022/07/16 11:03:53;;;;;;;15.75;8.80;;;;;;;;;;5033388;28;20826;-61
2022/07/16 11:06:20;;;;;;;16.65;9.00;;;;;;;;;;5033526;28;20018;-61
2022/07/16 11:08:47;;;;;;;17.23;9.73;;;;;;;;;;5033142;28;20025;-61
2022/07/16 11:11:14;;;;;;;16.40;9.25;;;;;;;;;;5033306;28;20029;-58
2022/07/16 11:13:41;;;;;;;15.18;8.80;;;;;;;;;;5033542;28;20034;-62
2022/07/16 11:16:08;;;;;;;15.13;8.57;;;;;;;;;;5033605;28;20021;-60
2022/07/16 11:18:37;;;;;;;15.45;9.15;;;;;;;;;;5032922;28;20052;-61
2022/07/16 11:21:10;;;;;;;15.20;9.05;;;;;;;;;;5032950;28;20547;-61
2022/07/16 11:23:48;;;;;;;17.77;9.38;;;;;;;;;;5033163;28;20019;-61
2022/07/16 11:26:14;;;;;;;;;;;;;;;;;;5032190;28;20033;-61
2022/07/16 11:28:51;;;;;;;17.75;9.95;;;;;;;;;;5032721;28;20341;-61
2022/07/16 11:31:23;;;;;;;15.90;9.25;;;;;;;;;;5033679;28;20494;-60
2022/07/16 11:33:49;;;;;;;14.68;9.15;;;;;;;;;;5034520;28;20429;-60
2022/07/16 11:36:15;;;;;;;17.88;9.15;;;;;;;;;;5017171;28;20555;-60
2022/07/16 11:38:41;;;;;;;14.90;9.70;;;;;;;;;;5022857;28;20033;-60
2022/07/16 11:41:08;;;;;;;17.15;9.77;;;;;;;;;;5027615;28;20060;-61
2022/07/16 11:43:34;;;;;;;14.95;9.50;;;;;;;;;;5029307;28;20021;-61
2022/07/16 11:46:00;;;;;;;18.10;9.35;;;;;;;;;;5024106;28;20037;-61
2022/07/16 11:48:35;;;;;;;15.20;9.10;;;;;;;;;;5028380;28;20095;-61
2022/07/16 11:51:06;;;;;;;15.68;9.30;;;;;;;;;;5024744;28;20087;-61
2022/07/16 11:53:33;;;;;;;14.60;9.43;;;;;;;;;;5026287;28;20053;-61
2022/07/16 11:56:00;;;;;;;15.33;9.50;;;;;;;;;;5030305;28;20514;-61
2022/07/16 11:58:26;;;;;;;18.05;9.27;;;;;;;;;;5025951;28;20025;-62
2022/07/16 12:00:52;;;;;;;15.05;9.10;;;;;;;;;;5029860;28;20022;-61
2022/07/16 12:03:18;;;;;;;16.33;9.32;;;;;;;;;;5027667;28;20025;-61
2022/07/16 12:05:44;;;;;;;14.75;9.32;;;;;;;;;;5026433;28;20524;-61
2022/07/16 12:08:10;;;;;;;16.35;9.80;;;;;;;;;;5030343;28;20022;-62
2022/07/16 12:10:36;;;;;;;16.55;9.60;;;;;;;;;;5027611;28;20105;-62
2022/07/16 12:13:07;;;;;;;14.55;9.30;;;;;;;;;;5020764;28;20034;-61
2022/07/16 12:15:56;;;;;;;15.35;9.15;;;;;;;;;;5021756;28;20072;-62
2022/07/16 12:18:23;;;;;;;14.82;9.38;;;;;;;;;;5022624;28;20053;-63
2022/07/16 12:20:49;;;;;;;16.63;9.40;;;;;;;;;;5020578;28;20101;-62
2022/07/16 12:23:37;;;;;;;15.60;9.35;;;;;;;;;;5021960;28;20049;-62
2022/07/16 12:26:04;;;;;;;15.77;10.20;;;;;;;;;;5022714;28;20025;-63
2022/07/16 12:28:30;;;;;;;14.60;9.60;;;;;;;;;;5020353;28;20390;-60
2022/07/16 12:30:56;;;;;;;16.98;9.50;;;;;;;;;;5020813;28;20022;-58
2022/07/16 12:33:22;;;;;;;18.08;10.00;;;;;;;;;;5019112;28;20049;-60
2022/07/16 12:35:56;;;;;;;15.57;10.32;;;;;;;;;;5031849;28;20031;-61
2022/07/16 12:38:40;;;;;;;15.98;9.65;;;;;;;;;;5031701;28;20039;-57
2022/07/16 12:41:13;;;;;;;16.90;9.50;;;;;;;;;;5031709;28;20071;-59
2022/07/16 12:43:40;;;;;;;15.65;9.65;;;;;;;;;;5030341;28;20492;-61
2022/07/16 12:46:07;;;;;;;16.00;10.10;;;;;;;;;;5030318;28;20429;-59
2022/07/16 12:48:44;;;;;;;15.45;9.75;;;;;;;;;;5031206;28;20030;-60
2022/07/16 12:51:10;;;;;;;16.75;9.75;;;;;;;;;;5031770;28;20087;-60
2022/07/16 12:53:36;;;;;;;16.00;10.32;;;;;;;;;;5031528;28;20390;-60
2022/07/16 12:58:47;;;;;;;16.55;10.00;;;;;;;;;;5031493;28;20082;-56
2022/07/16 13:01:14;;;;;;;15.13;9.73;;;;;;;;;;5031298;28;20045;-60
2022/07/16 13:03:40;;;;;;;15.35;9.40;;;;;;;;;;5031602;28;20029;-61
2022/07/16 13:06:06;;;;;;;15.82;9.73;;;;;;;;;;5035344;28;20026;-60
2022/07/16 13:08:32;;;;;;;15.30;9.90;;;;;;;;;;5034303;28;20025;-63
2022/07/16 13:10:59;;;;;;;16.00;9.90;;;;;;;;;;5024884;28;20034;-61
2022/07/16 13:13:25;;;;;;;15.57;10.30;;;;;;;;;;5023429;28;20029;-60
2022/07/16 13:15:51;;;;;;;14.75;9.40;;;;;;;;;;5024829;28;20090;-61
2022/07/16 13:18:17;;;;;;;15.32;9.35;;;;;;;;;;5024061;28;20541;-59
2022/07/16 13:20:43;;;;;;;16.27;9.65;;;;;;;;;;5023102;28;20164;-61
2022/07/16 13:23:09;;;;;;;15.45;9.40;;;;;;;;;;5026079;28;20053;-60
2022/07/16 13:25:35;;;;;;;16.08;9.90;;;;;;;;;;5024327;28;20111;-59
2022/07/16 13:28:01;;;;;;;16.42;9.70;;;;;;;;;;5024413;28;20026;-60
2022/07/16 13:30:27;;;;;;;16.52;9.40;;;;;;;;;;5024149;28;20033;-62
2022/07/16 13:32:53;;;;;;;15.02;9.00;;;;;;;;;;5022466;28;20026;-62
2022/07/16 13:35:19;;;;;;;16.13;9.18;;;;;;;;;;5033603;28;20124;-61
2022/07/16 13:37:46;;;;;;;15.25;9.40;;;;;;;;;;5034779;28;20101;-59
2022/07/16 13:40:12;;;;;;;14.65;9.45;;;;;;;;;;5033419;28;20087;-63
2022/07/16 13:42:38;;;;;;;14.50;9.35;;;;;;;;;;5034996;28;20033;-62
2022/07/16 13:45:04;;;;;;;15.38;9.68;;;;;;;;;;5034794;28;20022;-62
2022/07/16 13:47:30;;;;;;;17.52;9.32;;;;;;;;;;4681078;28;9999854;-61
2022/07/16 13:49:56;;;;;;;14.68;9.50;;;;;;;;;;4680693;28;9999718;-61
2022/07/16 13:52:22;;;;;;;14.63;9.80;;;;;;;;;;5021129;28;20033;-60
2022/07/16 13:54:49;;;;;;;15.50;10.40;;;;;;;;;;5031455;28;20025;-61
2022/07/16 14:00:00;;;;;;;15.43;9.70;;;;;;;;;;5011917;28;20410;-62
2022/07/16 14:02:26;;;;;;;17.63;10.07;;;;;;;;;;5017288;28;20457;-56
2022/07/16 14:04:52;;;;;;;16.60;10.20;;;;;;;;;;5018343;28;20117;-61
2022/07/16 14:07:19;;;;;;;15.35;9.85;;;;;;;;;;5029665;28;20104;-60
2022/07/16 14:09:45;;;;;;;16.35;9.60;;;;;;;;;;5031793;28;20087;-61
2022/07/16 14:12:11;;;;;;;15.85;9.43;;;;;;;;;;5022371;28;20034;-60
2022/07/16 14:14:37;;;;;;;16.75;10.30;;;;;;;;;;5011576;28;20486;-63
2022/07/16 14:17:03;;;;;;;14.70;9.38;;;;;;;;;;5013521;28;20068;-63
2022/07/16 14:19:29;;;;;;;15.30;9.98;;;;;;;;;;5014373;28;20026;-59
2022/07/16 14:21:55;;;;;;;15.25;10.00;;;;;;;;;;5033776;28;20025;-61
2022/07/16 14:24:21;;;;;;;15.95;9.63;;;;;;;;;;5034045;28;20049;-62
2022/07/16 14:26:47;;;;;;;16.30;9.88;;;;;;;;;;5034375;28;20433;-62
2022/07/16 14:29:13;;;;;;;16.90;10.20;;;;;;;;;;4683575;28;9999778;-61
2022/07/16 14:31:39;;;;;;;14.98;9.82;;;;;;;;;;5031467;28;20112;-62
2022/07/16 14:34:05;;;;;;;16.60;10.40;;;;;;;;;;5031199;28;20025;-61
2022/07/16 14:36:31;;;;;;;16.67;10.13;;;;;;;;;;5031075;28;20044;-61
2022/07/16 14:38:57;;;;;;;16.85;10.10;;;;;;;;;;5011616;28;20030;-60
2022/07/16 14:41:24;;;;;;;15.65;10.07;;;;;;;;;;5011045;28;20037;-62